首页
METAR-TAF:

METAR-TAF

机场 :

岐阜, 日本

纬度: 35-23N, 经度: 136-52E, 海拔: 39米

当前天气观测

该预报发布于1小时和30分钟前的07:35 UTC
风速5节,风向西
温度 14°C
湿度 100%
气压 997 hPa
能見度: 5000
少量云层高于300英尺
散云层高于700英尺
多云层高于1000英尺
小阵雨, 轻雾

METAR: RJNG 010735Z 28005KT 5000 -SHRA BR FEW003 SCT007 BKN010 14/14 Q0997 RMK 2ST003 3ST007 5ST010 A2944

时间: 18:05 (09:05 UTC)


TAF: 丢失

超过4000个机场的气象观测和天气预报(METAR&TAF报告)。

可查询的气象台以黄色和红色小点在地图上表示。

将鼠标移到小点上方,可查看气象台名称。

然后点击查看天气观测和预报。

如需切换地图:点击带黑十字的绿色按钮放大地图;点击带横线的绿色按钮缩小地图;或者点击绿色箭头查看邻近地区的地图。


METAR-TAF: